Time;durP1;ratioP1;P1;durP2;ratioP2;P2;SDS_P1;SDS_P2;PMS_P1;PMS_P2;Temp;Humidity;BMP_temperature;BMP_pressure;BME280_temperature;BME280_humidity;BME280_pressure;Samples;Min_cycle;Max_cycle;Signal;HPM_P1;HPM_P2
2022/02/07 00:01:06;;;;;;;16.82;9.13;;;;;;;2.22;54.21;100417.91;1816951;78;28294;-59
2022/02/07 00:03:44;;;;;;;18.60;9.57;;;;;;;2.23;54.34;100421.41;1825399;78;26359;-59
2022/02/07 00:06:07;;;;;;;20.60;10.20;;;;;;;2.18;54.39;100413.27;1825610;78;25695;-59
2022/02/07 00:08:35;;;;;;;18.07;9.23;;;;;;;2.15;54.64;100413.43;1825972;78;25788;-59
2022/02/07 00:11:03;;;;;;;19.07;10.38;;;;;;;2.12;54.55;100408.78;1801972;78;25613;-58
2022/02/07 00:13:30;;;;;;;18.00;9.03;;;;;;;2.10;54.78;100404.03;1794301;78;27442;-59
2022/02/07 00:15:57;;;;;;;21.05;10.68;;;;;;;2.10;54.73;100403.58;1794144;80;25506;-58
2022/02/07 00:18:26;;;;;;;14.05;7.83;;;;;;;2.13;55.21;100406.52;1794294;80;25755;-58
2022/02/07 00:20:53;;;;;;;17.57;7.25;;;;;;;2.10;55.02;100404.03;1793890;80;25807;-59
2022/02/07 00:23:20;;;;;;;11.60;7.15;;;;;;;2.11;55.05;100403.93;1811124;78;25719;-59
2022/02/07 00:25:48;;;;;;;15.40;7.22;;;;;;;2.11;55.23;100406.58;1792716;78;28123;-59
2022/02/07 00:28:14;;;;;;;9.65;6.28;;;;;;;2.11;55.18;100395.12;1797069;78;25668;-59
2022/02/07 00:30:41;;;;;;;13.48;6.03;;;;;;;2.11;55.28;100385.35;1823096;77;25746;-58
2022/02/07 00:33:09;;;;;;;11.40;5.47;;;;;;;2.13;55.30;100370.69;1820762;78;25739;-58
2022/02/07 00:35:37;;;;;;;12.50;5.12;;;;;;;2.13;55.29;100379.48;1791865;80;25743;-59
2022/02/07 00:38:10;;;;;;;11.53;5.67;;;;;;;2.14;55.50;100363.95;1794156;80;27460;-59
2022/02/07 00:40:45;;;;;;;12.20;6.17;;;;;;;2.16;55.61;100355.89;1793300;79;25731;-59
2022/02/07 00:43:15;;;;;;;16.30;5.58;;;;;;;2.13;55.55;100355.61;1801931;78;25710;-59
2022/02/07 00:48:10;;;;;;;12.53;6.17;;;;;;;2.13;55.38;100321.11;1794423;80;25748;-59
2022/02/07 00:50:42;;;;;;;9.10;4.60;;;;;;;2.14;55.39;100314.86;1794234;79;28127;-59
2022/02/07 00:53:13;;;;;;;10.28;5.42;;;;;;;2.14;55.52;100318.84;1832006;77;25690;-59
2022/02/07 00:55:42;;;;;;;10.72;5.30;;;;;;;2.15;55.54;100307.28;1844874;77;25699;-58
2022/02/07 00:58:09;;;;;;;17.42;7.87;;;;;;;2.12;55.62;100300.82;1845001;77;25803;-58
2022/02/07 01:00:37;;;;;;;14.18;7.00;;;;;;;2.08;55.78;100287.38;1843980;77;25730;-58
2022/02/07 01:03:04;;;;;;;15.60;5.35;;;;;;;2.06;55.68;100285.77;1845354;77;27321;-59
2022/02/07 01:05:32;;;;;;;8.88;4.62;;;;;;;2.07;56.56;100273.73;1844576;77;25786;-58
2022/02/07 01:08:00;;;;;;;7.05;4.65;;;;;;;2.04;55.97;100272.58;1845321;77;25659;-58
2022/02/07 01:10:38;;;;;;;7.58;4.25;;;;;;;2.07;56.54;100278.16;1844545;77;25819;-59
2022/02/07 01:15:56;;;;;;;5.62;3.55;;;;;;;2.07;54.35;100258.27;1785068;77;27537;-59
2022/02/07 01:46:12;;;;;;;6.37;3.27;;;;;;;2.39;53.42;100241.67;1844975;77;27516;-59
2022/02/07 01:48:52;;;;;;;5.45;2.08;;;;;;;2.82;51.28;100165.86;1848900;77;25486;-59
2022/02/07 01:56:12;;;;;;;8.10;2.87;;;;;;;3.29;51.37;100157.47;1831469;78;27462;-60
2022/02/07 01:58:40;;;;;;;3.92;2.65;;;;;;;3.31;51.44;100152.91;1820246;78;25836;-60
2022/02/07 02:01:08;;;;;;;7.25;3.42;;;;;;;3.38;50.86;100156.00;1805902;78;25680;-60
2022/02/07 02:03:36;;;;;;;6.90;2.77;;;;;;;3.40;51.30;100149.62;1805360;78;27900;-60
2022/02/07 02:06:07;;;;;;;4.35;2.05;;;;;;;3.40;51.22;100142.14;1805491;79;25771;-60
2022/02/07 02:08:36;;;;;;;8.18;2.77;;;;;;;3.41;51.35;100143.81;1804589;78;27857;-60
2022/02/07 02:11:04;;;;;;;11.40;3.00;;;;;;;3.48;50.76;100142.45;1821828;78;25745;-60
2022/02/07 02:13:53;;;;;;;6.90;2.72;;;;;;;3.51;50.62;100128.09;1833944;77;25781;-60
2022/02/07 02:16:25;;;;;;;4.42;2.08;;;;;;;3.57;49.03;100110.36;1831254;78;25822;-60
2022/02/07 02:22:23;;;;;;;8.15;2.52;;;;;;;3.71;47.61;100094.30;1834229;78;28158;-60
2022/02/07 02:32:53;;;;;;;4.12;2.30;;;;;;;4.38;44.39;100068.23;1799936;79;25708;-59
2022/02/07 02:37:59;;;;;;;4.12;2.00;;;;;;;4.70;43.77;100060.96;1834352;78;25451;-59
2022/02/07 02:45:43;;;;;;;5.45;2.15;;;;;;;5.08;42.38;100035.00;1805596;79;25702;-60
2022/02/07 02:48:22;;;;;;;3.40;1.60;;;;;;;5.15;43.22;100035.75;1804716;79;27461;-59
2022/02/07 02:50:47;;;;;;;2.90;2.02;;;;;;;5.21;42.24;100037.09;1814831;78;25948;-59
2022/02/07 02:53:16;;;;;;;4.28;2.42;;;;;;;5.27;42.65;100038.44;1818801;78;25646;-58
2022/02/07 02:55:47;;;;;;;4.50;1.72;;;;;;;5.35;42.20;100048.48;1833756;78;25761;-59
2022/02/07 02:58:18;;;;;;;2.58;1.72;;;;;;;5.38;42.49;100046.91;1834055;78;25907;-58
2022/02/07 03:00:49;;;;;;;3.42;1.70;;;;;;;5.49;41.76;100046.92;1809745;78;28312;-59
2022/02/07 03:03:18;;;;;;;5.17;2.00;;;;;;;5.53;41.80;100038.20;1810159;77;25678;-59
2022/02/07 03:05:47;;;;;;;3.52;2.12;;;;;;;5.61;40.86;100037.93;1845131;77;25691;-59
2022/02/07 03:08:18;;;;;;;6.62;2.02;;;;;;;5.66;41.10;100026.05;1845303;77;26575;-58
2022/02/07 03:10:55;;;;;;;3.30;2.02;;;;;;;5.73;40.52;100012.58;1834869;77;25623;-59
2022/02/07 03:18:36;;;;;;;5.17;2.10;;;;;;;5.95;39.73;99985.85;1736433;81;25870;-59
2022/02/07 03:21:04;;;;;;;8.90;2.42;;;;;;;5.96;39.86;99981.34;1778828;79;26087;-59
2022/02/07 03:23:32;;;;;;;17.77;2.60;;;;;;;6.01;39.43;99987.67;1804765;79;25785;-59
2022/02/07 03:26:00;;;;;;;7.17;2.27;;;;;;;6.03;39.37;99971.88;1844127;77;28217;-59
2022/02/07 03:28:29;;;;;;;8.63;2.85;;;;;;;6.04;39.54;99962.91;1845303;77;25748;-59
2022/02/07 03:30:56;;;;;;;9.00;2.80;;;;;;;6.05;39.27;99953.92;1845245;77;25499;-59
2022/02/07 03:33:23;;;;;;;5.78;2.62;;;;;;;6.06;39.45;99958.29;1845225;77;25798;-58
2022/02/07 03:35:51;;;;;;;8.15;2.62;;;;;;;6.10;39.35;99956.20;1844251;77;25631;-59
2022/02/07 03:38:20;;;;;;;5.37;3.05;;;;;;;6.12;39.65;99962.28;1845307;77;27328;-58
2022/02/07 03:40:48;;;;;;;9.95;3.35;;;;;;;6.09;39.98;99958.05;1844820;77;25481;-59
2022/02/07 03:43:15;;;;;;;8.65;2.40;;;;;;;6.08;40.47;99954.15;1844877;77;25717;-59
2022/02/07 03:45:43;;;;;;;7.12;2.58;;;;;;;6.07;40.21;99951.98;1844775;77;25704;-58
2022/02/07 03:48:11;;;;;;;9.50;2.45;;;;;;;6.06;40.53;99952.95;1843744;77;25797;-58
2022/02/07 03:50:39;;;;;;;4.87;2.40;;;;;;;6.02;40.97;99950.16;1845079;77;27537;-59
2022/02/07 03:53:06;;;;;;;24.90;5.00;;;;;;;5.98;41.39;99951.84;1819447;77;25789;-59
2022/02/07 03:55:35;;;;;;;33.85;3.85;;;;;;;5.94;41.32;99956.13;1810306;79;25509;-59
2022/02/07 03:58:04;;;;;;;10.93;1.98;;;;;;;5.89;41.63;99949.46;1770591;79;25730;-58
2022/02/07 04:00:34;;;;;;;9.40;2.72;;;;;;;5.83;41.46;99941.47;1795081;79;25631;-59
2022/02/07 04:03:10;;;;;;;3.87;2.15;;;;;;;5.82;41.41;99942.44;1794191;79;27482;-59
2022/02/07 04:05:49;;;;;;;7.30;2.33;;;;;;;5.82;40.82;99941.10;1790156;79;25809;-58
2022/02/07 04:08:17;;;;;;;22.48;3.35;;;;;;;5.78;41.38;99929.00;1795150;79;25677;-59
2022/02/07 04:11:07;;;;;;;13.98;4.03;;;;;;;5.73;42.00;99927.17;1776999;79;26641;-59
2022/02/07 04:13:33;;;;;;;11.88;3.87;;;;;;;5.64;42.53;99922.95;1794581;79;25482;-59
2022/02/07 04:16:04;;;;;;;29.87;3.30;;;;;;;5.53;42.91;99918.97;1795220;78;27508;-59
2022/02/07 04:18:50;;;;;;;18.52;3.47;;;;;;;5.42;43.21;99921.69;1773152;79;25832;-59
2022/02/07 04:21:03;;;;;;;13.40;3.00;;;;;;;5.29;43.59;99922.66;1792522;79;25656;-59
2022/02/07 04:23:31;;;;;;;24.43;3.37;;;;;;;5.23;43.92;99923.63;1812603;78;25781;-59
2022/02/07 04:26:08;;;;;;;11.25;3.10;;;;;;;5.16;44.34;99913.46;1788937;79;25978;-59
2022/02/07 04:28:35;;;;;;;23.85;3.30;;;;;;;5.10;44.87;99914.43;1795321;78;27453;-59
2022/02/07 04:31:02;;;;;;;27.98;5.10;;;;;;;5.04;44.89;99920.25;1795276;79;25792;-59
2022/02/07 04:33:30;;;;;;;14.70;4.00;;;;;;;4.96;45.02;99920.38;1795158;78;25667;-59
2022/02/07 04:35:57;;;;;;;15.72;5.15;;;;;;;4.91;44.92;99919.05;1809316;78;25821;-59
2022/02/07 04:38:24;;;;;;;15.38;5.55;;;;;;;4.89;44.87;99918.31;1806056;79;25737;-58
2022/02/07 04:40:52;;;;;;;12.82;5.35;;;;;;;4.83;44.90;99906.31;1799219;78;27471;-59
2022/02/07 04:43:21;;;;;;;12.18;5.40;;;;;;;4.79;44.93;99908.87;1757167;80;25531;-59
2022/02/07 04:53:54;;;;;;;17.75;5.03;;;;;;;4.56;45.20;99882.69;1815225;78;27634;-59
2022/02/07 05:03:53;;;;;;;25.57;6.55;;;;;;;4.49;45.33;99863.66;1845069;77;25800;-59
2022/02/07 05:14:41;;;;;;;28.73;6.35;;;;;;;4.39;45.77;99851.56;1823950;77;25894;-58
2022/02/07 05:17:09;;;;;;;12.35;5.75;;;;;;;4.32;46.25;99848.52;1821944;77;26552;-58
2022/02/07 05:19:50;;;;;;;15.60;5.67;;;;;;;4.21;46.63;99851.98;1792149;77;28351;-59
2022/02/07 05:22:29;;;;;;;23.45;6.42;;;;;;;4.11;46.74;99851.48;1784515;77;25902;-60
2022/02/07 05:25:01;;;;;;;30.77;6.10;;;;;;;4.03;46.61;99848.09;1798633;77;25814;-59
2022/02/07 05:27:33;;;;;;;14.60;6.05;;;;;;;3.99;47.05;99845.30;1829003;77;25786;-58
2022/02/07 05:30:18;;;;;;;22.22;7.70;;;;;;;3.94;47.34;99834.16;1821210;77;27370;-58
2022/02/07 05:33:04;;;;;;;22.15;7.17;;;;;;;3.86;47.76;99828.08;1828011;77;27472;-58
2022/02/07 05:35:41;;;;;;;16.60;7.78;;;;;;;3.78;48.46;99826.48;1829097;77;25709;-58
2022/02/07 05:38:19;;;;;;;26.25;8.53;;;;;;;3.69;48.31;99827.55;1823753;77;25726;-58
2022/02/07 05:41:06;;;;;;;30.43;8.35;;;;;;;3.64;48.02;99820.87;1822375;77;25790;-59
2022/02/07 05:43:38;;;;;;;31.62;9.15;;;;;;;3.64;48.21;99817.71;1807485;77;25986;-59
2022/02/07 05:46:06;;;;;;;34.73;8.50;;;;;;;3.63;48.28;99824.48;1805337;79;28209;-59
2022/02/07 05:48:41;;;;;;;30.25;9.18;;;;;;;3.61;48.37;99815.30;1808994;79;25456;-59
2022/02/07 05:51:10;;;;;;;27.82;9.00;;;;;;;3.61;48.33;99821.95;1808028;78;25707;-59
2022/02/07 05:53:45;;;;;;;24.37;7.80;;;;;;;3.59;48.45;99831.36;1812164;78;25969;-59
2022/02/07 05:56:13;;;;;;;23.52;7.92;;;;;;;3.57;49.14;99833.77;1822162;78;25770;-59
2022/02/07 05:58:59;;;;;;;25.68;9.33;;;;;;;3.49;49.09;99840.14;1823303;78;27542;-60
2022/02/07 06:01:27;;;;;;;22.87;9.35;;;;;;;3.45;49.19;99843.02;1829535;78;25976;-60
2022/02/07 06:03:56;;;;;;;32.25;10.82;;;;;;;3.44;49.47;99837.82;1834078;78;25710;-60
2022/02/07 06:06:23;;;;;;;35.10;10.40;;;;;;;3.40;49.22;99834.55;1832884;78;25792;-59
2022/02/07 06:08:50;;;;;;;34.38;10.72;;;;;;;3.42;49.58;99829.97;1819192;78;25654;-59
2022/02/07 06:11:19;;;;;;;34.60;10.35;;;;;;;3.36;49.37;99838.38;1829277;77;27489;-59
2022/02/07 06:13:47;;;;;;;51.02;13.98;;;;;;;3.36;49.37;99837.05;1794899;78;25739;-60
2022/02/07 06:16:17;;;;;;;33.63;12.18;;;;;;;3.36;49.45;99834.39;1791893;79;25774;-59
2022/02/07 06:18:49;;;;;;;38.55;12.25;;;;;;;3.37;49.71;99843.23;1791609;79;26681;-60
2022/02/07 06:21:17;;;;;;;30.62;9.60;;;;;;;3.35;50.04;99842.02;1816762;78;25518;-59
2022/02/07 06:23:45;;;;;;;27.58;9.53;;;;;;;3.32;49.97;99823.63;1832599;77;27519;-59
2022/02/07 06:26:13;;;;;;;32.17;10.63;;;;;;;3.26;50.08;99822.77;1799976;78;25748;-59
2022/02/07 06:28:42;;;;;;;30.48;10.45;;;;;;;3.22;50.07;99814.16;1812996;78;25684;-59
2022/02/07 06:31:10;;;;;;;27.93;9.08;;;;;;;3.22;50.04;99810.17;1811488;79;25750;-59
2022/02/07 06:33:38;;;;;;;33.55;10.35;;;;;;;3.19;50.29;99806.41;1811306;79;25866;-59
2022/02/07 06:36:06;;;;;;;23.92;9.60;;;;;;;3.22;50.46;99805.33;1811121;79;27455;-60
2022/02/07 06:38:33;;;;;;;26.82;9.93;;;;;;;3.19;50.32;99806.87;1822491;78;25659;-59
2022/02/07 06:41:01;;;;;;;27.45;9.33;;;;;;;3.21;50.37;99808.48;1828242;78;25817;-59
2022/02/07 06:43:29;;;;;;;33.90;11.97;;;;;;;3.23;50.38;99793.24;1826548;78;25809;-59
2022/02/07 06:45:58;;;;;;;26.85;11.45;;;;;;;3.23;50.77;99799.05;1824756;78;26281;-59
2022/02/07 06:48:27;;;;;;;22.70;9.95;;;;;;;3.20;50.69;99801.92;1818964;78;27494;-59
2022/02/07 06:50:54;;;;;;;23.40;9.30;;;;;;;3.23;50.76;99803.87;1797114;78;25801;-59
2022/02/07 06:53:21;;;;;;;26.12;11.18;;;;;;;3.26;51.01;99808.14;1812047;77;25674;-59
2022/02/07 06:55:50;;;;;;;29.42;11.40;;;;;;;3.25;50.70;99808.60;1826340;77;25826;-59
2022/02/07 06:58:17;;;;;;;28.95;11.85;;;;;;;3.28;50.78;99804.86;1836612;77;25741;-59
2022/02/07 07:00:45;;;;;;;26.35;11.25;;;;;;;3.27;51.32;99805.36;1838753;77;27421;-60
2022/02/07 07:03:17;;;;;;;27.02;10.10;;;;;;;3.26;51.05;99789.04;1832500;77;26531;-59
2022/02/07 07:05:43;;;;;;;23.47;10.60;;;;;;;3.28;51.01;99791.57;1830553;77;26302;-59
2022/02/07 07:08:11;;;;;;;30.72;12.75;;;;;;;3.33;50.95;99792.10;1826810;77;25807;-59
2022/02/07 07:10:38;;;;;;;24.52;12.50;;;;;;;3.39;50.85;99794.30;1831514;77;25807;-59
2022/02/07 07:13:13;;;;;;;41.88;13.60;;;;;;;3.44;50.86;99789.96;1826038;77;28147;-59
2022/02/07 07:15:43;;;;;;;23.62;10.68;;;;;;;3.49;50.82;99781.64;1832763;77;26318;-59
2022/02/07 07:18:09;;;;;;;25.60;10.68;;;;;;;3.50;50.88;99778.02;1828244;77;25704;-59
2022/02/07 07:20:38;;;;;;;26.05;10.45;;;;;;;3.54;51.01;99773.69;1834378;77;26846;-59
2022/02/07 07:23:06;;;;;;;26.87;9.80;;;;;;;3.61;50.95;99775.41;1816846;77;25777;-59
2022/02/07 07:25:37;;;;;;;26.10;10.03;;;;;;;3.67;50.89;99775.44;1835390;77;27206;-59
2022/02/07 07:28:09;;;;;;;24.98;9.93;;;;;;;3.70;50.90;99780.50;1825958;77;25723;-59
2022/02/07 07:30:47;;;;;;;25.92;10.13;;;;;;;3.70;50.71;99769.39;1826811;77;25777;-59
2022/02/07 07:33:17;;;;;;;24.70;10.05;;;;;;;3.71;50.85;99767.11;1830997;77;25787;-59
2022/02/07 07:35:41;;;;;;;21.30;10.10;;;;;;;3.70;50.69;99760.55;1841817;77;25658;-59
2022/02/07 07:38:08;;;;;;;28.07;9.08;;;;;;;3.72;50.74;99775.42;1829346;77;27468;-59
2022/02/07 07:40:36;;;;;;;27.30;10.75;;;;;;;3.74;50.76;99791.28;1836592;77;25791;-59
2022/02/07 07:43:07;;;;;;;35.73;11.33;;;;;;;3.79;50.69;99791.77;1835030;77;25788;-59
2022/02/07 07:46:00;;;;;;;49.38;23.60;;;;;;;3.82;50.71;99789.36;1811687;79;25861;-59
2022/02/07 07:48:30;;;;;;;28.92;12.98;;;;;;;3.83;50.74;99775.09;1812960;77;25792;-60
2022/02/07 07:51:07;;;;;;;33.65;11.33;;;;;;;3.89;50.60;99756.84;1843117;77;27584;-60
2022/02/07 08:01:55;;;;;;;29.92;11.00;;;;;;;4.11;50.36;99745.02;1844935;77;25713;-59
2022/02/07 08:04:20;;;;;;;26.20;11.45;;;;;;;4.16;50.24;99746.86;1844145;77;27529;-59
2022/02/07 08:06:56;;;;;;;29.10;13.22;;;;;;;4.18;50.25;99743.09;1844433;77;25514;-59
2022/02/07 08:10:19;;;;;;;30.70;12.95;;;;;;;4.25;50.19;99742.14;1839587;77;25677;-59
2022/02/07 08:11:47;;;;;;;34.67;12.75;;;;;;;4.35;50.15;99735.09;1767224;79;26621;-59
2022/02/07 08:14:14;;;;;;;36.17;12.40;;;;;;;4.44;50.05;99730.86;1767846;80;26130;-59
2022/02/07 08:16:41;;;;;;;38.05;13.78;;;;;;;4.52;50.08;99736.42;1774172;80;27486;-59
2022/02/07 08:19:08;;;;;;;29.70;12.03;;;;;;;4.60;50.05;99737.62;1773336;80;25609;-60
2022/02/07 08:21:36;;;;;;;30.48;13.25;;;;;;;4.70;49.97;99732.78;1778872;80;25730;-59
2022/02/07 08:24:06;;;;;;;33.15;14.00;;;;;;;4.81;49.92;99733.23;1747936;80;25818;-59
2022/02/07 08:26:33;;;;;;;27.80;13.18;;;;;;;4.88;49.77;99724.73;1748349;82;25830;-60
2022/02/07 08:29:00;;;;;;;36.77;14.45;;;;;;;4.95;49.77;99726.78;1747858;82;27575;-59
2022/02/07 08:31:26;;;;;;;51.37;18.32;;;;;;;5.01;49.63;99726.27;1747404;82;25839;-59
2022/02/07 08:33:53;;;;;;;63.95;17.80;;;;;;;5.06;49.65;99734.38;1769013;80;25681;-59
2022/02/07 08:36:21;;;;;;;60.95;17.55;;;;;;;5.10;49.56;99735.34;1778072;80;25874;-59
2022/02/07 08:38:48;;;;;;;63.92;17.73;;;;;;;5.15;49.52;99727.80;1779077;80;25734;-59
2022/02/07 08:41:15;;;;;;;58.73;16.95;;;;;;;5.25;49.54;99718.53;1767639;80;27434;-59
2022/02/07 08:43:42;;;;;;;50.90;15.32;;;;;;;5.34;49.47;99723.59;1789682;78;25732;-59
2022/02/07 08:46:09;;;;;;;26.87;12.55;;;;;;;5.46;49.44;99716.38;1794615;79;25434;-59
2022/02/07 08:48:36;;;;;;;42.10;12.30;;;;;;;5.53;49.26;99709.55;1794232;80;25847;-59
2022/02/07 08:51:06;;;;;;;29.48;11.00;;;;;;;5.63;49.37;99708.30;1787810;79;25727;-59
2022/02/07 08:53:39;;;;;;;40.45;10.85;;;;;;;5.70;49.41;99710.80;1819379;77;27461;-59
2022/02/07 08:56:05;;;;;;;27.77;11.20;;;;;;;5.85;49.38;99703.77;1836509;77;25742;-59
2022/02/07 08:58:34;;;;;;;28.73;9.78;;;;;;;5.98;49.37;99702.22;1829079;77;25782;-59
2022/02/07 09:01:11;;;;;;;56.75;11.75;;;;;;;6.13;49.41;99708.95;1827745;77;25796;-59
2022/02/07 09:03:55;;;;;;;37.42;10.80;;;;;;;6.29;49.26;99702.27;1829532;77;25729;-59
2022/02/07 09:06:32;;;;;;;52.70;11.65;;;;;;;6.45;49.07;99703.09;1828426;77;27528;-59
2022/02/07 09:11:17;;;;;;;49.23;19.82;;;;;;;6.83;48.74;99670.26;1824715;77;25769;-59
2022/02/07 09:13:46;;;;;;;53.80;19.12;;;;;;;7.01;48.17;99648.17;1826555;77;25791;-59
2022/02/07 09:16:29;;;;;;;38.28;18.98;;;;;;;7.29;47.69;99654.48;1820679;77;25512;-59
2022/02/07 09:18:46;;;;;;;30.20;13.18;;;;;;;7.93;47.53;99658.78;1811236;77;28203;-59
2022/02/07 09:21:15;;;;;;;35.70;12.37;;;;;;;8.81;46.35;99664.19;1826120;77;25739;-59
2022/02/07 09:23:45;;;;;;;22.05;11.22;;;;;;;9.17;45.67;99666.88;1841660;77;25488;-59
2022/02/07 09:26:13;;;;;;;33.55;12.25;;;;;;;9.76;44.65;99667.67;1825841;78;25890;-59
2022/02/07 09:28:42;;;;;;;38.10;13.20;;;;;;;9.82;44.16;99680.94;1825919;78;25761;-60
2022/02/07 09:31:11;;;;;;;35.00;15.15;;;;;;;9.86;42.88;99678.30;1827758;77;27444;-59
2022/02/07 09:33:38;;;;;;;40.65;12.95;;;;;;;10.78;41.86;99668.30;1844669;77;25777;-59
2022/02/07 09:36:05;;;;;;;30.92;13.58;;;;;;;11.69;40.47;99668.34;1844978;77;25720;-59
2022/02/07 09:38:33;;;;;;;41.68;13.03;;;;;;;11.67;41.12;99671.18;1845258;77;26598;-60
2022/02/07 09:41:00;;;;;;;34.85;13.50;;;;;;;11.74;41.22;99672.69;1834105;77;25682;-59
2022/02/07 09:43:32;;;;;;;34.25;13.13;;;;;;;11.96;40.63;99665.74;1832663;77;27418;-60
2022/02/07 09:46:09;;;;;;;40.95;12.05;;;;;;;11.84;40.17;99672.01;1829719;77;26019;-60
2022/02/07 09:48:39;;;;;;;46.83;13.55;;;;;;;11.70;40.29;99664.60;1819988;77;25812;-59
2022/02/07 09:51:08;;;;;;;32.08;13.50;;;;;;;11.59;39.86;99655.03;1827589;77;26432;-59
2022/02/07 09:53:34;;;;;;;34.80;13.48;;;;;;;11.41;39.06;99652.53;1811942;77;25734;-60
2022/02/07 09:56:04;;;;;;;45.20;16.07;;;;;;;11.30;39.79;99648.31;1830125;77;27531;-60
2022/02/07 09:58:37;;;;;;;52.55;18.87;;;;;;;11.27;39.25;99648.67;1832591;77;25971;-60
2022/02/07 10:01:00;;;;;;;61.13;22.50;;;;;;;11.18;38.62;99638.91;1839177;77;25492;-60
2022/02/07 10:03:35;;;;;;;27.00;9.28;;;;;;;10.95;39.36;99639.06;1814614;77;25791;-60
2022/02/07 10:06:13;;;;;;;20.63;7.47;;;;;;;10.88;38.12;99635.36;1790639;77;25683;-59
2022/02/07 10:11:23;;;;;;;26.48;7.90;;;;;;;10.94;37.07;99627.10;1844660;77;25508;-59
2022/02/07 10:13:49;;;;;;;25.77;6.80;;;;;;;11.02;36.06;99623.59;1818388;77;25735;-59
2022/02/07 10:16:41;;;;;;;13.10;6.28;;;;;;;11.14;36.89;99623.60;1804522;79;25853;-59
2022/02/07 10:18:55;;;;;;;21.42;7.40;;;;;;;11.48;36.91;99614.97;1798604;79;25860;-59
2022/02/07 10:21:42;;;;;;;22.22;7.15;;;;;;;11.74;35.30;99630.94;1802894;79;27421;-59
2022/02/07 10:35:36;;;;;;;26.95;8.23;;;;;;;12.19;33.72;99599.82;1844715;77;27531;-59
2022/02/07 10:40:30;;;;;;;15.03;7.33;;;;;;;12.65;33.78;99587.43;1845061;77;25745;-59
2022/02/07 10:46:11;;;;;;;19.05;7.03;;;;;;;13.66;33.23;99565.65;1813309;77;25705;-59
2022/02/07 10:48:41;;;;;;;26.42;7.45;;;;;;;14.63;33.27;99559.64;1805349;77;27365;-60
2022/02/07 10:51:31;;;;;;;14.05;6.80;;;;;;;15.47;31.70;99557.23;1832810;77;25918;-59
2022/02/07 10:54:08;;;;;;;15.72;6.45;;;;;;;16.11;30.34;99552.10;1834925;77;25687;-60
2022/02/07 10:56:43;;;;;;;13.08;6.87;;;;;;;16.61;31.55;99552.88;1811685;78;25776;-60
2022/02/07 10:59:15;;;;;;;15.05;6.55;;;;;;;17.19;29.25;99550.97;1823758;78;25895;-59
2022/02/07 11:04:34;;;;;;;19.27;6.42;;;;;;;17.82;28.36;99535.47;1820042;77;26712;-60
2022/02/07 11:06:59;;;;;;;23.05;6.87;;;;;;;18.20;29.36;99525.70;1824658;77;25765;-60
2022/02/07 11:27:43;;;;;;;19.95;7.03;;;;;;;16.07;27.34;99518.80;1818099;78;27483;-59
2022/02/07 11:30:13;;;;;;;22.77;7.37;;;;;;;15.46;28.04;99529.30;1817039;78;43155;-59
2022/02/07 11:32:47;;;;;;;15.13;7.35;;;;;;;14.96;28.92;99521.23;1812606;78;25753;-59
2022/02/07 11:35:18;;;;;;;14.83;7.12;;;;;;;14.63;29.52;99517.69;1821030;78;25809;-60
2022/02/07 11:38:08;;;;;;;16.62;7.25;;;;;;;14.48;29.58;99521.80;1801695;78;25811;-60
2022/02/07 11:40:42;;;;;;;15.25;7.37;;;;;;;14.15;30.43;99523.64;1822394;77;27385;-60
2022/02/07 11:43:18;;;;;;;;;;;;;;;13.84;30.92;99525.23;1817813;78;25722;-59
2022/02/07 11:46:08;;;;;;;17.07;7.60;;;;;;;13.59;31.36;99520.96;1820036;78;25699;-59
2022/02/07 11:48:45;;;;;;;18.98;7.20;;;;;;;13.38;31.67;99538.38;1814675;78;26678;-59
2022/02/07 11:51:30;;;;;;;18.65;7.30;;;;;;;13.10;32.12;99519.59;1822962;78;25762;-59
2022/02/07 11:54:05;;;;;;;13.70;6.95;;;;;;;12.99;32.58;99532.17;1825507;77;27474;-59
2022/02/07 11:56:54;;;;;;;17.60;7.08;;;;;;;12.77;32.86;99527.98;1807450;77;25690;-60
2022/02/07 12:02:06;;;;;;;19.75;7.45;;;;;;;12.66;33.17;99528.41;1823009;77;25847;-60
2022/02/07 12:04:48;;;;;;;18.87;7.72;;;;;;;12.49;33.52;99517.73;1819804;78;25783;-59
2022/02/07 12:07:35;;;;;;;20.68;7.75;;;;;;;12.43;33.81;99521.13;1821991;77;27492;-59
2022/02/07 12:12:50;;;;;;;27.73;7.55;;;;;;;12.30;34.41;99519.55;1824427;77;25798;-59
2022/02/07 12:15:35;;;;;;;20.05;7.00;;;;;;;12.20;34.65;99523.80;1823405;77;25779;-59
2022/02/07 12:18:23;;;;;;;15.05;6.37;;;;;;;12.15;34.92;99522.98;1816407;78;25676;-60
2022/02/07 12:20:52;;;;;;;25.77;8.68;;;;;;;12.09;35.22;99516.97;1819224;77;26881;-60
2022/02/07 12:23:31;;;;;;;15.15;6.62;;;;;;;12.02;35.48;99511.95;1823144;78;25928;-59
2022/02/07 12:26:10;;;;;;;26.70;8.10;;;;;;;12.02;35.43;99507.91;1819094;78;25738;-59
2022/02/07 12:33:59;;;;;;;21.25;7.22;;;;;;;12.06;35.76;99509.22;1827284;78;27488;-60
2022/02/07 12:36:31;;;;;;;23.45;8.03;;;;;;;12.11;35.89;99505.50;1819039;78;26386;-59
2022/02/07 12:39:02;;;;;;;18.75;7.33;;;;;;;12.16;36.06;99497.71;1820406;78;25718;-59
2022/02/07 12:41:31;;;;;;;20.30;8.00;;;;;;;12.21;36.02;99501.22;1821837;78;25793;-60
2022/02/07 12:44:01;;;;;;;23.50;7.42;;;;;;;12.23;36.33;99502.41;1825809;78;26182;-60
2022/02/07 12:46:31;;;;;;;18.90;7.03;;;;;;;12.27;36.35;99504.58;1820847;78;28071;-59
2022/02/07 12:49:01;;;;;;;18.92;8.03;;;;;;;12.32;36.36;99498.64;1824876;77;25827;-59
2022/02/07 12:51:43;;;;;;;22.40;6.60;;;;;;;12.36;36.37;99499.95;1826630;78;25700;-60
2022/02/07 12:54:20;;;;;;;16.55;5.83;;;;;;;12.41;36.03;99504.31;1808476;78;25786;-59
2022/02/07 12:56:48;;;;;;;18.98;6.03;;;;;;;12.43;36.15;99501.43;1816129;78;25595;-59
2022/02/07 12:59:16;;;;;;;16.12;5.75;;;;;;;12.42;36.20;99500.57;1827852;78;28283;-59
2022/02/07 13:01:45;;;;;;;25.17;5.95;;;;;;;12.45;36.26;99498.05;1809637;78;25743;-60
2022/02/07 13:04:18;;;;;;;20.95;4.78;;;;;;;12.50;36.28;99499.69;1810455;78;25634;-59
2022/02/07 13:06:52;;;;;;;16.82;4.92;;;;;;;12.52;36.29;99493.61;1827408;77;25802;-59
2022/02/07 13:09:26;;;;;;;12.70;4.95;;;;;;;12.58;36.33;99496.09;1819288;78;25755;-59
2022/02/07 13:14:50;;;;;;;14.98;4.08;;;;;;;12.64;36.48;99482.70;1806848;79;25726;-60
2022/02/07 13:17:23;;;;;;;23.92;4.55;;;;;;;12.73;36.66;99479.96;1804783;78;25753;-59
2022/02/07 13:19:52;;;;;;;13.20;3.75;;;;;;;12.81;36.70;99475.84;1794802;78;26407;-59
2022/02/07 13:22:22;;;;;;;14.65;4.47;;;;;;;12.87;36.85;99470.19;1802107;78;25794;-59
2022/02/07 13:24:49;;;;;;;15.38;4.58;;;;;;;12.90;36.95;99461.73;1823424;78;28269;-59
2022/02/07 13:27:19;;;;;;;15.78;5.35;;;;;;;12.93;36.98;99458.68;1827508;78;25738;-59
2022/02/07 13:29:51;;;;;;;21.62;5.67;;;;;;;12.95;36.90;99460.69;1817878;77;25767;-59
2022/02/07 13:32:26;;;;;;;16.65;5.00;;;;;;;12.93;37.09;99455.98;1813487;78;25786;-59
2022/02/07 13:35:10;;;;;;;65.55;8.03;;;;;;;12.92;37.05;99450.25;1828183;77;25659;-59
2022/02/07 13:37:39;;;;;;;;;;;;;;;12.90;37.16;99446.89;1830846;78;28165;-59
2022/02/07 13:40:25;;;;;;;23.20;5.50;;;;;;;12.84;37.26;99456.56;1828579;78;25632;-59
2022/02/07 13:42:51;;;;;;;13.05;5.35;;;;;;;12.67;37.09;99452.67;1825233;78;25462;-59
2022/02/07 13:45:23;;;;;;;12.13;5.15;;;;;;;12.56;37.20;99453.62;1824390;77;25725;-59
2022/02/07 13:47:56;;;;;;;36.13;6.75;;;;;;;12.45;37.36;99454.38;1827643;77;25628;-59
2022/02/07 13:50:30;;;;;;;46.23;8.00;;;;;;;12.37;37.40;99447.17;1828490;78;27448;-59
2022/02/07 13:53:02;;;;;;;27.60;6.10;;;;;;;12.31;37.51;99441.16;1827955;77;33561;-59
2022/02/07 13:55:39;;;;;;;86.30;10.65;;;;;;;12.25;37.62;99436.50;1825022;77;25777;-59
2022/02/07 13:58:33;;;;;;;69.87;11.03;;;;;;;12.20;37.64;99434.84;1822702;77;26557;-59
2022/02/07 14:01:05;;;;;;;95.92;13.38;;;;;;;12.15;37.83;99434.02;1845018;77;25751;-59
2022/02/07 14:03:40;;;;;;;85.15;17.27;;;;;;;12.04;38.01;99425.03;1844997;77;27551;-58
2022/02/07 14:06:15;;;;;;;87.42;18.80;;;;;;;11.98;38.16;99435.16;1844789;77;25757;-59
2022/02/07 14:08:51;;;;;;;66.07;22.17;;;;;;;11.86;38.53;99441.43;1839656;77;26777;-59
2022/02/07 14:11:26;;;;;;;56.25;25.23;;;;;;;11.67;38.64;99446.77;1844780;77;25771;-59
2022/02/07 14:13:55;;;;;;;72.95;24.65;;;;;;;11.39;39.00;99444.52;1836679;77;25706;-60
2022/02/07 14:16:26;;;;;;;61.85;22.32;;;;;;;11.08;38.96;99457.39;1832205;77;27508;-59
2022/02/07 14:18:54;;;;;;;57.30;22.52;;;;;;;10.76;39.25;99457.27;1830651;77;25800;-59